EGKK

London Gatwick Airport

London, United Kingdom
METAR EGKK 092120Z 26006KT 9999 SCT045 07/04 Q1021
Observed Flight Rules
Dec-9 @ 21:20 UTC (21 minutes ago) Visual Flight Rules
Wind Visibility Clouds
260° at 6 knots 10,000+ meters
  • Scattered at 4,500' AGL
Temperatures Readings
Current 7°C / 45°F
Dewpoint 4°C / 39°F
Humidity 81%
Altimeter 30.15" Hg
Pressure 1021 hPa
Elevation 62
METAR EGKK 092120Z 26006KT 9999 SCT045 07/04 Q1021
Observed Flight Rules
Dec-9 @ 21:20 UTC
(21 minutes ago)
VFR
Wind Visibility
260° at 6 knots 10,000+ meters
Clouds
  • Scattered at 4,500' AGL
Temperature Dewpoint
7°C / 45°F 4°C / 39°F
Humidity Altimeter Pressure
81% 30.15" Hg 1021 hPa